This is the latest recevied weather packets stored in our database for station/object TG5ALY-16. If no packets are shown the sender has not sent any weather packets the latest 10 day(s).
| Time | Temp. | Humidity | Pressure | Rain* | Wind** | Luminosity | Snow |
|---|---|---|---|---|---|---|---|
| 1778113016 | 17.78° C | 82% | 1014 hPa | 0 mm | - | - | - |
| 1778112415 | 18.89° C | 79% | 1014 hPa | 0 mm | - | - | - |
| 1778111814 | 19.44° C | 75% | 1014 hPa | 0 mm | - | - | - |
| 1778111214 | 19.44° C | 75% | 1014 hPa | 0 mm | - | - | - |
| 1778110613 | 19.44° C | 75% | 1014 hPa | 0 mm | - | - | - |
| 1778110012 | 19.44° C | 75% | 1013 hPa | 0 mm | - | - | - |
| 1778109412 | 20° C | 73% | 1013 hPa | 0 mm | - | - | - |
| 1778108811 | 20° C | 73% | 1013 hPa | 0 mm | - | - | - |
| 1778108210 | 20° C | 72% | 1013 hPa | 0 mm | - | - | - |
| 1778107609 | 22.78° C | 60% | 1013 hPa | 0 mm | - | - | - |
| 1778107009 | 22.78° C | 60% | 1013 hPa | 0 mm | - | - | - |
| 1778106408 | 22.22° C | 63% | 1013 hPa | 0 mm | - | - | - |
| 1778105807 | 21.67° C | 63% | 1013 hPa | 0 mm | - | - | - |
| 1778105207 | 21.67° C | 63% | 1013 hPa | 0 mm | - | - | - |
| 1778104606 | 21.67° C | 63% | 1013 hPa | 0 mm | - | - | - |
| 1778104005 | 20.56° C | 68% | 1013 hPa | 0 mm | - | - | - |
| 1778103405 | 20.56° C | 68% | 1013 hPa | 0 mm | - | - | - |
| 1778102804 | 21.11° C | 68% | 1013 hPa | 0 mm | - | - | - |
| 1778102203 | 21.11° C | 68% | 1013 hPa | 0 mm | - | - | - |
| 1778101232 | 22.78° C | 62% | 1013 hPa | 0 mm | - | - | - |
| 1778100631 | 22.78° C | 61% | 1013 hPa | 0 mm | - | - | - |
| 1778100031 | 22.78° C | 61% | 1013 hPa | 0 mm | - | - | - |
| 1778099430 | 23.89° C | 56% | 1013 hPa | 0 mm | - | - | - |
| 1778098820 | 23.89° C | 56% | 1013 hPa | 0 mm | - | - | - |
| 1778098220 | 24.44° C | 49% | 1013 hPa | 0 mm | - | - | - |
* Rain latest hour (hover to see other rain measurements)
** Current wind speed in m/s (hover to see current wind gust speed)